Time;durP1;ratioP1;P1;durP2;ratioP2;P2;SDS_P1;SDS_P2;PMS_P1;PMS_P2;Temp;Humidity;BMP_temperature;BMP_pressure;BME280_temperature;BME280_humidity;BME280_pressure;Samples;Min_cycle;Max_cycle;Signal;HPM_P1;HPM_P2
2022/08/16 00:00:02;;;;;;;2.90;2.80;;;25.20;61.40;;;;;;5027385;28;20072;-32
2022/08/16 00:02:28;;;;;;;2.83;2.72;;;25.10;61.30;;;;;;5041546;28;20528;-26
2022/08/16 00:04:54;;;;;;;2.67;2.55;;;25.20;61.40;;;;;;5042897;28;20096;-27
2022/08/16 00:07:19;;;;;;;2.30;2.20;;;25.10;61.30;;;;;;5042832;28;21059;-28
2022/08/16 00:09:45;;;;;;;3.10;2.90;;;25.10;61.30;;;;;;5041831;28;20045;-28
2022/08/16 00:12:10;;;;;;;2.70;2.60;;;25.10;61.30;;;;;;5042760;28;20036;-28
2022/08/16 00:14:36;;;;;;;2.58;2.47;;;25.10;61.30;;;;;;5024410;28;20090;-25
2022/08/16 00:17:02;;;;;;;2.78;2.65;;;25.20;61.30;;;;;;5024469;28;20411;-28
2022/08/16 00:19:29;;;;;;;2.20;2.10;;;25.20;61.30;;;;;;5040987;28;20078;-28
2022/08/16 00:21:55;;;;;;;2.50;2.40;;;25.10;61.30;;;;;;5042925;28;20582;-24
2022/08/16 00:24:22;;;;;;;2.15;2.05;;;25.20;61.30;;;;;;5040917;28;20078;-25
2022/08/16 00:26:48;;;;;;;2.40;2.30;;;25.20;61.30;;;;;;5042291;28;20021;-26
2022/08/16 00:29:14;;;;;;;2.75;2.63;;;25.20;61.30;;;;;;5041784;28;20044;-28
2022/08/16 00:31:40;;;;;;;2.30;2.20;;;25.10;61.30;;;;;;5042749;28;20021;-26
2022/08/16 00:34:06;;;;;;;2.67;2.58;;;25.20;61.40;;;;;;5025462;28;20021;-26
2022/08/16 00:36:31;;;;;;;2.35;2.25;;;25.10;61.30;;;;;;5032133;28;20048;-25
2022/08/16 00:38:57;;;;;;;2.40;2.22;;;25.10;61.40;;;;;;5045276;28;20048;-28
2022/08/16 00:41:23;;;;;;;2.25;2.15;;;25.10;61.30;;;;;;5041740;28;20496;-24
2022/08/16 00:43:49;;;;;;;2.83;2.63;;;25.10;61.40;;;;;;5043952;28;20025;-26
2022/08/16 00:46:23;;;;;;;2.42;2.22;;;25.10;61.40;;;;;;5045158;28;20094;-28
2022/08/16 00:48:50;;;;;;;2.08;1.98;;;25.10;61.40;;;;;;5040524;28;20025;-27
2022/08/16 00:51:16;;;;;;;1.90;1.80;;;25.10;61.40;;;;;;5044143;28;20131;-25
2022/08/16 00:53:41;;;;;;;2.13;1.95;;;25.10;61.30;;;;;;5045062;28;20559;-26
2022/08/16 00:56:09;;;;;;;2.38;2.28;;;25.10;61.30;;;;;;5022419;28;20029;-27
2022/08/16 00:58:37;;;;;;;2.25;2.05;;;25.10;61.40;;;;;;5027280;28;20039;-27
2022/08/16 01:01:04;;;;;;;2.00;1.90;;;25.10;61.40;;;;;;5043281;28;20699;-27
2022/08/16 01:03:29;;;;;;;2.20;2.10;;;25.10;61.50;;;;;;5040606;28;20036;-25
2022/08/16 01:05:55;;;;;;;2.00;1.90;;;25.10;61.50;;;;;;5039974;28;20024;-25
2022/08/16 01:08:21;;;;;;;2.35;2.20;;;25.10;61.50;;;;;;5026563;28;20471;-23
2022/08/16 01:10:46;;;;;;;1.75;1.65;;;25.10;61.50;;;;;;5020602;28;20075;-26
2022/08/16 01:13:21;;;;;;;2.08;1.98;;;25.00;61.50;;;;;;5040885;28;20055;-26
2022/08/16 01:15:52;;;;;;;2.10;2.00;;;25.10;61.40;;;;;;5024218;28;20082;-25
2022/08/16 01:18:20;;;;;;;1.85;1.75;;;25.10;61.40;;;;;;5023980;28;20013;-29
2022/08/16 01:21:07;;;;;;;2.13;2.03;;;25.10;61.40;;;;;;5009910;28;20116;-24
2022/08/16 01:24:04;;;;;;;2.20;2.10;;;25.10;61.30;;;;;;5043995;28;20032;-25
2022/08/16 01:26:30;;;;;;;2.15;2.05;;;25.00;61.40;;;;;;5026681;28;20037;-27
2022/08/16 01:28:58;;;;;;;2.00;1.90;;;25.10;61.40;;;;;;5010536;28;20393;-26
2022/08/16 01:31:23;;;;;;;2.20;2.10;;;25.10;61.50;;;;;;5010827;28;20013;-25
2022/08/16 01:33:49;;;;;;;2.00;1.90;;;25.10;61.60;;;;;;5006577;28;20067;-24
2022/08/16 01:36:15;;;;;;;2.22;2.13;;;25.00;61.40;;;;;;5043632;28;20397;-25
2022/08/16 01:38:42;;;;;;;2.03;1.92;;;25.10;61.40;;;;;;5025676;28;20053;-27
2022/08/16 01:41:13;;;;;;;1.80;1.70;;;25.10;61.40;;;;;;5043966;28;20064;-25
2022/08/16 01:43:40;;;;;;;2.20;2.10;;;25.10;61.40;;;;;;5044068;28;20063;-25
2022/08/16 01:46:09;;;;;;;1.70;1.65;;;25.00;61.50;;;;;;5046037;28;20029;-25
2022/08/16 01:48:34;;;;;;;2.00;1.90;;;25.00;61.40;;;;;;5043165;28;20017;-28
2022/08/16 01:51:00;;;;;;;1.90;1.80;;;25.10;61.50;;;;;;5042619;28;20447;-29
2022/08/16 01:53:26;;;;;;;1.70;1.60;;;25.00;61.50;;;;;;5042160;28;20503;-27
2022/08/16 01:55:52;;;;;;;2.22;2.13;;;25.10;61.50;;;;;;5027173;28;20111;-29
2022/08/16 01:58:17;;;;;;;2.20;2.10;;;25.10;61.40;;;;;;5043106;28;20024;-26
2022/08/16 02:00:43;;;;;;;2.10;2.00;;;25.10;61.40;;;;;;5024426;28;20036;-25
2022/08/16 02:03:09;;;;;;;1.83;1.73;;;25.10;61.40;;;;;;5044692;28;20096;-25
2022/08/16 02:05:35;;;;;;;2.10;2.00;;;25.10;61.50;;;;;;5043913;28;20411;-25
2022/08/16 02:08:01;;;;;;;2.05;1.95;;;25.10;61.40;;;;;;5043922;28;20111;-26
2022/08/16 02:10:27;;;;;;;1.75;1.65;;;25.00;61.40;;;;;;5043836;28;20044;-26
2022/08/16 02:12:52;;;;;;;1.85;1.75;;;25.00;61.50;;;;;;5049123;28;20028;-26
2022/08/16 02:15:20;;;;;;;1.52;1.42;;;25.00;61.50;;;;;;5048987;28;20025;-24
2022/08/16 02:17:46;;;;;;;1.73;1.67;;;25.00;61.50;;;;;;5047532;28;20021;-28
2022/08/16 02:20:11;;;;;;;1.70;1.60;;;25.00;61.50;;;;;;5047395;28;20083;-30
2022/08/16 02:22:37;;;;;;;1.42;1.42;;;25.00;61.50;;;;;;5044209;28;20040;-25
2022/08/16 02:25:09;;;;;;;1.45;1.45;;;25.00;61.50;;;;;;5029568;28;20556;-24
2022/08/16 02:27:34;;;;;;;2.00;1.90;;;25.00;61.50;;;;;;5047108;28;20504;-24
2022/08/16 02:30:00;;;;;;;1.65;1.55;;;25.00;61.50;;;;;;5048775;28;20039;-25
2022/08/16 02:32:25;;;;;;;1.92;1.83;;;25.00;61.60;;;;;;5048718;28;20033;-25
2022/08/16 02:34:51;;;;;;;1.55;1.55;;;25.00;61.50;;;;;;5048033;28;20017;-23
2022/08/16 02:37:17;;;;;;;1.92;1.83;;;25.00;61.50;;;;;;5048186;28;20047;-25
2022/08/16 02:39:42;;;;;;;1.70;1.60;;;25.10;61.60;;;;;;5047719;28;20127;-25
2022/08/16 02:42:08;;;;;;;1.95;1.85;;;25.00;62.50;;;;;;5050039;28;20031;-26
2022/08/16 02:44:34;;;;;;;1.85;1.75;;;25.00;61.70;;;;;;5043520;28;20029;-25
2022/08/16 02:46:59;;;;;;;1.70;1.65;;;25.00;61.80;;;;;;5048181;28;20028;-28
2022/08/16 02:49:25;;;;;;;1.98;1.88;;;25.00;61.70;;;;;;5044710;28;20083;-30
2022/08/16 02:51:51;;;;;;;2.20;2.10;;;25.10;61.80;;;;;;5045040;28;20029;-25
2022/08/16 02:54:17;;;;;;;2.35;2.15;;;25.10;61.80;;;;;;5043107;28;20033;-25
2022/08/16 02:56:42;;;;;;;1.95;1.85;;;25.10;61.70;;;;;;5048851;28;20053;-24
2022/08/16 02:59:08;;;;;;;3.35;2.08;;;25.10;61.80;;;;;;5045265;28;20033;-24
2022/08/16 03:01:33;;;;;;;2.03;1.92;;;25.10;61.70;;;;;;5047265;28;20096;-24
2022/08/16 03:04:00;;;;;;;2.15;2.05;;;25.10;61.70;;;;;;5043684;28;20025;-25
2022/08/16 03:06:26;;;;;;;2.00;1.90;;;25.10;62.50;;;;;;5045956;28;20018;-25
2022/08/16 03:08:51;;;;;;;2.08;1.98;;;25.10;61.80;;;;;;5048782;28;20403;-27
2022/08/16 03:11:17;;;;;;;2.10;1.90;;;25.10;62.00;;;;;;5047525;28;20041;-27
2022/08/16 03:13:44;;;;;;;2.08;1.98;;;25.10;61.70;;;;;;5045993;28;20154;-24
2022/08/16 03:16:09;;;;;;;2.00;1.90;;;25.10;61.70;;;;;;5047875;28;20040;-25
2022/08/16 03:18:35;;;;;;;2.00;1.90;;;25.10;61.90;;;;;;5045408;28;20021;-27
2022/08/16 03:21:00;;;;;;;1.77;1.77;;;25.00;61.90;;;;;;5049681;28;20403;-26
2022/08/16 03:23:26;;;;;;;1.95;1.85;;;25.00;61.90;;;;;;5045767;28;20036;-26
2022/08/16 03:25:52;;;;;;;2.17;2.08;;;25.00;61.80;;;;;;5045550;28;20106;-24
2022/08/16 03:28:17;;;;;;;3.08;1.90;;;25.10;61.90;;;;;;5045439;28;20474;-26
2022/08/16 03:30:43;;;;;;;2.20;2.10;;;25.00;61.90;;;;;;5044440;28;20115;-25
2022/08/16 03:33:09;;;;;;;2.15;2.05;;;25.00;61.90;;;;;;5049355;28;20433;-28
2022/08/16 03:35:35;;;;;;;1.80;1.70;;;25.00;62.00;;;;;;5047447;28;20025;-27
2022/08/16 03:38:03;;;;;;;1.77;1.67;;;25.00;62.00;;;;;;5045096;28;20541;-30
2022/08/16 03:40:30;;;;;;;1.77;1.67;;;25.00;62.00;;;;;;5044921;28;20091;-24
2022/08/16 03:42:55;;;;;;;1.92;1.83;;;25.00;62.00;;;;;;5046489;28;20025;-25
2022/08/16 03:45:22;;;;;;;2.00;1.90;;;25.00;62.00;;;;;;5044294;28;20032;-24
2022/08/16 03:47:49;;;;;;;2.13;2.03;;;25.00;62.00;;;;;;5047520;28;20059;-27
2022/08/16 03:50:15;;;;;;;1.98;1.80;;;25.00;61.90;;;;;;5028377;28;20395;-26
2022/08/16 03:52:41;;;;;;;1.95;1.80;;;25.00;62.00;;;;;;5047436;28;20079;-24
2022/08/16 03:55:08;;;;;;;1.90;1.80;;;25.00;62.20;;;;;;5030085;28;20075;-28
2022/08/16 03:57:34;;;;;;;1.90;1.80;;;25.00;62.00;;;;;;5046770;28;20024;-25
2022/08/16 03:59:59;;;;;;;1.70;1.60;;;25.00;61.90;;;;;;5045591;28;20028;-24
2022/08/16 04:02:25;;;;;;;1.77;1.67;;;25.00;62.20;;;;;;5048383;28;20107;-28
2022/08/16 04:04:52;;;;;;;2.00;1.90;;;25.00;62.20;;;;;;5045463;28;20025;-27
2022/08/16 04:07:18;;;;;;;1.75;1.65;;;24.90;62.20;;;;;;5045402;28;20037;-26
2022/08/16 04:09:44;;;;;;;1.67;1.58;;;25.00;63.10;;;;;;5046221;28;20047;-30
2022/08/16 04:12:10;;;;;;;1.70;1.60;;;25.00;62.20;;;;;;5045465;28;20017;-26
2022/08/16 04:14:35;;;;;;;1.95;1.85;;;25.00;62.10;;;;;;5029753;28;20029;-24
2022/08/16 04:17:02;;;;;;;1.80;1.70;;;25.00;62.10;;;;;;5047663;28;20021;-23
2022/08/16 04:19:27;;;;;;;2.05;1.95;;;25.00;62.20;;;;;;5044935;28;20032;-24
2022/08/16 04:21:53;;;;;;;1.92;1.83;;;25.00;62.20;;;;;;5046846;28;20033;-25
2022/08/16 04:24:19;;;;;;;2.00;1.90;;;25.00;62.00;;;;;;5046406;28;20041;-26
2022/08/16 04:26:44;;;;;;;2.20;2.10;;;25.00;61.90;;;;;;5046991;28;20028;-24
2022/08/16 04:29:10;;;;;;;2.00;1.90;;;25.00;62.10;;;;;;5046173;28;20029;-24
2022/08/16 04:31:35;;;;;;;2.20;2.10;;;24.90;62.10;;;;;;5027639;28;20025;-25
2022/08/16 04:34:01;;;;;;;2.08;1.98;;;24.90;62.10;;;;;;5044521;28;20021;-23
2022/08/16 04:36:27;;;;;;;1.80;1.67;;;24.90;63.00;;;;;;5047031;28;20100;-25
2022/08/16 04:38:53;;;;;;;1.98;1.88;;;25.00;62.30;;;;;;5046322;28;20048;-28
2022/08/16 04:41:19;;;;;;;1.80;1.70;;;25.00;62.00;;;;;;5045115;28;20051;-29
2022/08/16 04:43:44;;;;;;;1.50;1.40;;;25.00;62.00;;;;;;5040548;28;20040;-24
2022/08/16 04:46:15;;;;;;;1.98;1.88;;;25.00;61.90;;;;;;5043905;28;20033;-25
2022/08/16 04:48:41;;;;;;;1.75;1.65;;;25.00;62.00;;;;;;5039415;28;20077;-24
2022/08/16 04:51:08;;;;;;;3.25;1.92;;;25.00;62.90;;;;;;5045120;28;20029;-26
2022/08/16 04:53:33;;;;;;;2.67;2.10;;;25.00;62.10;;;;;;5046046;28;20510;-25
2022/08/16 04:55:59;;;;;;;1.90;1.80;;;25.00;62.10;;;;;;5042726;28;20013;-26
2022/08/16 04:58:25;;;;;;;1.95;1.85;;;25.00;62.70;;;;;;5042049;28;20175;-26
2022/08/16 05:00:50;;;;;;;1.67;1.60;;;25.00;62.00;;;;;;5043931;28;20104;-28
2022/08/16 05:03:16;;;;;;;1.88;1.77;;;24.90;62.00;;;;;;5041599;28;20618;-27
2022/08/16 05:05:42;;;;;;;1.70;1.65;;;24.90;62.70;;;;;;5042750;28;20036;-26
2022/08/16 05:08:07;;;;;;;1.80;1.70;;;24.90;62.00;;;;;;5041092;28;20124;-28
2022/08/16 05:10:33;;;;;;;1.60;1.50;;;25.00;62.00;;;;;;5040083;28;20095;-25
2022/08/16 05:12:59;;;;;;;1.88;1.77;;;25.00;62.10;;;;;;5037701;28;20082;-25
2022/08/16 05:15:25;;;;;;;1.77;1.67;;;25.00;61.90;;;;;;5037057;28;20020;-28
2022/08/16 05:17:51;;;;;;;1.80;1.70;;;25.00;61.90;;;;;;5036601;28;20037;-28
2022/08/16 05:20:16;;;;;;;2.00;1.90;;;25.00;61.90;;;;;;5042506;28;20131;-24
2022/08/16 05:22:42;;;;;;;2.00;1.90;;;25.00;61.90;;;;;;5044019;28;20037;-28
2022/08/16 05:25:08;;;;;;;1.80;1.70;;;25.00;62.10;;;;;;5037374;28;20032;-29
2022/08/16 05:27:34;;;;;;;1.50;1.50;;;24.90;62.10;;;;;;5037694;28;20044;-27
2022/08/16 05:30:00;;;;;;;1.80;1.70;;;25.00;62.10;;;;;;5041598;28;20400;-25
2022/08/16 05:32:26;;;;;;;1.65;1.52;;;24.90;62.00;;;;;;5042589;28;20025;-30
2022/08/16 05:34:51;;;;;;;1.80;1.70;;;24.90;62.10;;;;;;5038819;28;20032;-25
2022/08/16 05:37:17;;;;;;;1.88;1.77;;;24.90;62.00;;;;;;5035704;28;20017;-26
2022/08/16 05:39:43;;;;;;;1.95;1.85;;;24.90;62.20;;;;;;5024436;28;20132;-28
2022/08/16 05:42:08;;;;;;;1.70;1.60;;;25.00;62.10;;;;;;5040111;28;20058;-27
2022/08/16 05:44:34;;;;;;;2.25;2.15;;;25.00;61.90;;;;;;5044019;28;20025;-27
2022/08/16 05:47:00;;;;;;;2.33;2.20;;;25.00;61.90;;;;;;5041360;28;20503;-25
2022/08/16 05:49:27;;;;;;;1.90;1.80;;;25.00;62.00;;;;;;5047970;28;20030;-28
2022/08/16 05:51:54;;;;;;;1.67;1.58;;;24.90;62.00;;;;;;5047366;28;20063;-28
2022/08/16 05:54:19;;;;;;;1.73;1.63;;;24.90;62.00;;;;;;5045274;28;20025;-29
2022/08/16 05:56:45;;;;;;;1.98;1.88;;;25.00;61.90;;;;;;5045099;28;20040;-26
2022/08/16 05:59:11;;;;;;;1.90;1.80;;;25.00;62.00;;;;;;5042787;28;20109;-27
2022/08/16 06:01:37;;;;;;;1.75;1.65;;;24.90;62.00;;;;;;5044428;28;20112;-26
2022/08/16 06:04:03;;;;;;;2.22;2.05;;;24.90;61.90;;;;;;4691520;28;10000329;-26
2022/08/16 06:06:29;;;;;;;1.90;1.80;;;24.90;61.90;;;;;;4691645;28;10000640;-26
2022/08/16 06:08:54;;;;;;;1.60;1.50;;;25.00;61.90;;;;;;5044001;28;20051;-26
2022/08/16 06:11:20;;;;;;;2.00;1.90;;;24.90;62.00;;;;;;5044250;28;20040;-28
2022/08/16 06:13:46;;;;;;;1.80;1.70;;;24.90;62.20;;;;;;5043941;28;20044;-25
2022/08/16 06:16:12;;;;;;;1.60;1.50;;;25.00;62.00;;;;;;5043919;28;20033;-25
2022/08/16 06:18:37;;;;;;;1.80;1.70;;;24.90;61.90;;;;;;5043466;28;20091;-24
2022/08/16 06:21:03;;;;;;;1.83;1.73;;;24.90;62.00;;;;;;5046011;28;20032;-27
2022/08/16 06:23:28;;;;;;;1.67;1.58;;;24.90;62.10;;;;;;5043889;28;20040;-25
2022/08/16 06:25:54;;;;;;;2.00;1.90;;;24.90;62.20;;;;;;5042676;28;20021;-27
2022/08/16 06:28:19;;;;;;;1.80;1.70;;;24.90;62.10;;;;;;5043149;28;20033;-44
2022/08/16 06:30:48;;;;;;;1.55;1.48;;;25.00;62.20;;;;;;4787428;28;10001294;-44
2022/08/16 06:33:14;;;;;;;1.60;1.50;;;24.90;62.30;;;;;;5044872;28;20248;-44
2022/08/16 06:35:39;;;;;;;1.70;1.60;;;24.90;62.20;;;;;;5046523;28;20040;-44
2022/08/16 06:38:05;;;;;;;1.33;1.33;;;25.00;62.40;;;;;;5046430;28;20562;-44
2022/08/16 06:40:31;;;;;;;1.58;1.48;;;24.90;62.40;;;;;;5045524;28;20507;-44
2022/08/16 06:42:57;;;;;;;1.77;1.67;;;24.90;62.80;;;;;;5026096;28;20440;-44
2022/08/16 06:45:23;;;;;;;1.70;1.60;;;24.90;62.70;;;;;;5042525;28;20112;-44
2022/08/16 06:47:48;;;;;;;1.80;1.70;;;24.90;62.70;;;;;;5045564;28;20029;-44
2022/08/16 06:50:14;;;;;;;1.77;1.67;;;24.90;62.70;;;;;;5044794;28;20029;-44
2022/08/16 06:52:40;;;;;;;1.33;1.23;;;24.90;62.80;;;;;;5043154;28;20032;-44
2022/08/16 06:55:06;;;;;;;1.65;1.55;;;24.90;62.70;;;;;;5048259;28;20108;-47
2022/08/16 06:57:32;;;;;;;1.50;1.48;;;24.90;62.90;;;;;;5048002;28;20025;-44
2022/08/16 06:59:57;;;;;;;1.45;1.45;;;24.90;62.90;;;;;;5030562;28;20032;-45
2022/08/16 07:02:23;;;;;;;1.80;1.70;;;24.90;62.80;;;;;;5047551;28;20025;-44
2022/08/16 07:04:48;;;;;;;1.35;1.30;;;24.90;62.60;;;;;;5048123;28;20032;-44
2022/08/16 07:07:14;;;;;;;1.50;1.40;;;24.90;62.80;;;;;;5043591;28;20029;-44
2022/08/16 07:09:39;;;;;;;1.50;1.40;;;24.80;62.80;;;;;;5047001;28;20041;-44
2022/08/16 07:12:05;;;;;;;1.70;1.60;;;24.90;62.70;;;;;;5049131;28;20021;-44
2022/08/16 07:14:32;;;;;;;1.30;1.30;;;24.90;62.60;;;;;;5046123;28;20400;-43
2022/08/16 07:16:57;;;;;;;1.70;1.58;;;24.90;62.60;;;;;;5031099;28;20033;-44
2022/08/16 07:19:23;;;;;;;1.52;1.35;;;24.90;62.40;;;;;;5047238;28;20024;-44
2022/08/16 07:21:49;;;;;;;1.70;1.60;;;24.90;63.30;;;;;;5045935;28;20092;-44
2022/08/16 07:24:16;;;;;;;1.30;1.30;;;24.90;62.50;;;;;;5048138;28;20070;-44
2022/08/16 07:26:42;;;;;;;1.45;1.40;;;24.90;62.60;;;;;;5047938;28;20025;-43
2022/08/16 07:29:07;;;;;;;1.40;1.40;;;24.90;62.50;;;;;;5044504;28;20035;-43
2022/08/16 07:31:33;;;;;;;2.00;1.60;;;24.90;62.80;;;;;;5045662;28;20365;-44
2022/08/16 07:33:59;;;;;;;1.40;1.30;;;24.80;63.10;;;;;;5026011;28;20028;-43
2022/08/16 07:36:25;;;;;;;1.40;1.40;;;24.80;62.90;;;;;;5046555;28;20017;-44
2022/08/16 07:38:51;;;;;;;1.60;1.50;;;24.80;63.10;;;;;;5044581;28;20045;-44
2022/08/16 07:41:16;;;;;;;2.35;1.30;;;24.80;63.50;;;;;;5041057;28;20021;-44
2022/08/16 07:43:42;;;;;;;1.60;1.50;;;24.70;63.50;;;;;;5037435;28;20029;-43
2022/08/16 07:46:08;;;;;;;1.77;1.65;;;24.70;63.60;;;;;;5042409;28;20549;-44
2022/08/16 07:48:34;;;;;;;1.60;1.50;;;24.70;63.80;;;;;;5037448;28;20025;-45
2022/08/16 07:50:59;;;;;;;1.50;1.40;;;24.70;63.70;;;;;;5043114;28;20082;-44
2022/08/16 07:53:29;;;;;;;1.95;1.85;;;24.70;64.10;;;;;;5043900;28;20021;-46
2022/08/16 07:55:55;;;;;;;1.80;1.52;;;24.70;64.00;;;;;;5039004;28;20080;-44
2022/08/16 07:58:21;;;;;;;1.90;1.75;;;24.70;63.80;;;;;;5040032;28;20048;-44
2022/08/16 08:00:47;;;;;;;1.58;1.48;;;24.80;64.00;;;;;;5041043;28;20838;-45
2022/08/16 08:03:12;;;;;;;2.22;1.50;;;24.70;64.20;;;;;;5039256;28;20136;-44
2022/08/16 08:05:39;;;;;;;1.92;1.75;;;24.80;64.30;;;;;;5036244;28;20021;-44
2022/08/16 08:08:05;;;;;;;7.97;1.60;;;24.80;64.80;;;;;;5039482;28;20033;-44
2022/08/16 08:10:30;;;;;;;3.15;1.70;;;24.80;65.60;;;;;;5036210;28;20569;-44
2022/08/16 08:12:56;;;;;;;1.95;1.70;;;24.90;66.10;;;;;;5040270;28;20062;-44
2022/08/16 08:15:23;;;;;;;1.85;1.75;;;24.80;66.00;;;;;;5034596;28;20040;-44
2022/08/16 08:17:49;;;;;;;1.45;1.35;;;24.80;66.30;;;;;;5037324;28;20033;-44
2022/08/16 08:20:16;;;;;;;21.98;2.13;;;24.80;66.30;;;;;;5036168;28;20059;-35
2022/08/16 08:22:46;;;;;;;3.05;1.70;;;24.80;65.90;;;;;;5037372;28;20040;-44
2022/08/16 08:25:12;;;;;;;1.85;1.75;;;25.20;65.00;;;;;;5035904;28;20451;-43
2022/08/16 08:27:37;;;;;;;1.92;1.83;;;25.00;65.50;;;;;;5033393;28;20496;-43
2022/08/16 08:30:04;;;;;;;1.92;1.83;;;24.90;65.80;;;;;;5041580;28;20021;-44
2022/08/16 08:32:29;;;;;;;3.15;2.15;;;25.00;65.80;;;;;;5040359;28;20037;-42
2022/08/16 08:34:57;;;;;;;3.08;2.00;;;25.00;65.30;;;;;;5042566;28;20404;-43
2022/08/16 08:37:23;;;;;;;2.35;1.42;;;25.00;65.80;;;;;;5036892;28;20412;-43
2022/08/16 08:39:48;;;;;;;2.58;1.73;;;25.00;66.10;;;;;;5023114;28;20065;-42
2022/08/16 08:42:14;;;;;;;3.40;1.42;;;25.00;65.70;;;;;;5027467;28;20040;-43
2022/08/16 08:44:40;;;;;;;4.63;2.25;;;25.00;66.10;;;;;;5022785;28;20029;-42
2022/08/16 08:47:06;;;;;;;1.80;1.70;;;25.00;66.40;;;;;;5024037;28;20033;-43
2022/08/16 08:49:32;;;;;;;3.75;1.95;;;25.00;66.60;;;;;;5020871;28;20099;-43
2022/08/16 08:51:57;;;;;;;1.98;1.88;;;25.00;66.40;;;;;;5023956;28;20060;-42
2022/08/16 08:54:24;;;;;;;2.40;1.50;;;24.90;66.30;;;;;;5026353;28;20476;-43
2022/08/16 08:56:51;;;;;;;1.80;1.70;;;24.90;66.40;;;;;;5024394;28;20025;-46
2022/08/16 08:59:16;;;;;;;3.28;2.00;;;24.90;66.10;;;;;;5026493;28;20032;-42
2022/08/16 09:01:42;;;;;;;2.92;1.60;;;24.90;66.00;;;;;;5025771;28;20026;-43
2022/08/16 09:04:08;;;;;;;2.95;1.50;;;24.90;65.80;;;;;;5023031;28;20037;-43
2022/08/16 09:06:34;;;;;;;4.97;1.65;;;25.00;66.00;;;;;;5022122;28;20039;-43
2022/08/16 09:08:59;;;;;;;1.55;1.45;;;24.90;65.80;;;;;;5026715;28;20037;-43
2022/08/16 09:11:25;;;;;;;1.83;1.42;;;25.00;65.70;;;;;;5025602;28;20048;-43
2022/08/16 09:13:51;;;;;;;1.60;1.50;;;25.00;65.60;;;;;;5023164;28;20033;-43
2022/08/16 09:16:17;;;;;;;1.70;1.60;;;25.00;65.70;;;;;;5027376;28;20026;-43
2022/08/16 09:18:43;;;;;;;1.40;1.30;;;25.00;65.60;;;;;;5024378;28;20033;-43
2022/08/16 09:21:09;;;;;;;1.40;1.30;;;25.00;65.50;;;;;;5027679;28;20386;-43
2022/08/16 09:23:36;;;;;;;3.92;2.03;;;25.00;65.50;;;;;;5030586;28;20021;-43
2022/08/16 09:26:03;;;;;;;1.48;1.40;;;25.00;65.60;;;;;;5030172;28;20548;-42
2022/08/16 09:28:28;;;;;;;1.23;1.17;;;25.00;65.50;;;;;;5029705;28;20025;-43
2022/08/16 09:30:54;;;;;;;1.30;1.30;;;25.00;65.40;;;;;;5028701;28;20381;-43
2022/08/16 09:33:20;;;;;;;1.63;1.52;;;25.00;65.30;;;;;;5029906;28;20059;-43
2022/08/16 09:35:46;;;;;;;1.38;1.20;;;25.00;65.00;;;;;;5028268;28;20009;-43
2022/08/16 09:38:12;;;;;;;2.55;1.17;;;25.00;65.40;;;;;;5032488;28;20048;-43
2022/08/16 09:40:42;;;;;;;1.85;1.05;;;25.00;65.10;;;;;;5049277;28;20467;-43
2022/08/16 09:43:09;;;;;;;1.42;1.33;;;25.00;65.20;;;;;;5048733;28;20446;-43
2022/08/16 09:45:37;;;;;;;1.50;1.40;;;25.00;65.90;;;;;;5046448;28;20056;-43
2022/08/16 09:48:05;;;;;;;1.40;1.40;;;25.00;65.00;;;;;;5050243;28;20040;-43
2022/08/16 09:50:31;;;;;;;2.72;1.25;;;25.10;64.80;;;;;;5049101;28;20033;-43
2022/08/16 09:52:58;;;;;;;1.48;1.48;;;25.10;64.40;;;;;;5031713;28;20031;-43
2022/08/16 09:55:24;;;;;;;1.00;1.00;;;25.10;64.20;;;;;;5046442;28;20832;-43
2022/08/16 09:57:50;;;;;;;1.10;1.00;;;25.10;64.30;;;;;;5048019;28;20775;-43
2022/08/16 10:00:16;;;;;;;1.35;1.13;;;25.10;64.10;;;;;;5048844;28;20026;-43
2022/08/16 10:02:41;;;;;;;1.23;1.20;;;25.20;64.20;;;;;;5048843;28;20029;-43
2022/08/16 10:05:07;;;;;;;2.97;0.88;;;25.10;64.10;;;;;;5046807;28;20025;-43
2022/08/16 10:07:33;;;;;;;1.00;1.00;;;25.20;64.20;;;;;;5045830;28;20028;-43
2022/08/16 10:09:58;;;;;;;1.17;1.17;;;25.20;64.20;;;;;;5047007;28;20571;-43
2022/08/16 10:15:27;;;;;;;1.15;1.15;;;25.20;64.10;;;;;;4965083;28;20035;-43
2022/08/16 10:17:53;;;;;;;1.10;1.10;;;25.20;64.00;;;;;;4950858;28;20074;-43
2022/08/16 10:20:19;;;;;;;1.02;1.02;;;25.20;63.90;;;;;;4968120;28;20899;-43
2022/08/16 10:22:45;;;;;;;0.80;0.80;;;25.20;63.80;;;;;;4967123;28;20473;-43
2022/08/16 10:25:10;;;;;;;1.17;1.08;;;25.20;63.80;;;;;;4965602;28;20030;-43
2022/08/16 10:27:36;;;;;;;1.00;1.00;;;25.20;63.80;;;;;;4967644;28;20030;-43
2022/08/16 10:30:03;;;;;;;0.90;0.90;;;25.20;63.70;;;;;;4965818;28;20038;-43
2022/08/16 10:32:29;;;;;;;1.00;1.00;;;25.30;63.70;;;;;;4965186;28;20583;-43
2022/08/16 10:34:54;;;;;;;0.77;0.77;;;25.30;63.40;;;;;;4963134;28;20130;-43
2022/08/16 10:37:20;;;;;;;0.90;0.90;;;25.30;63.40;;;;;;4965584;28;20050;-42
2022/08/16 10:39:45;;;;;;;1.42;0.93;;;25.30;63.40;;;;;;4964145;28;20109;-45
2022/08/16 10:42:11;;;;;;;0.80;0.80;;;25.30;63.40;;;;;;4966117;28;20062;-43
2022/08/16 10:44:37;;;;;;;1.17;1.17;;;25.30;63.40;;;;;;4964159;28;20038;-43
2022/08/16 10:47:03;;;;;;;0.77;0.77;;;25.30;63.40;;;;;;4968102;28;20042;-43
2022/08/16 10:49:28;;;;;;;0.90;0.90;;;25.30;63.40;;;;;;5008917;28;20531;-43
2022/08/16 10:51:54;;;;;;;0.93;0.93;;;25.30;63.40;;;;;;5046748;28;20025;-43
2022/08/16 10:54:20;;;;;;;1.10;1.10;;;25.30;63.20;;;;;;5050967;28;20032;-43
2022/08/16 10:56:46;;;;;;;0.90;0.90;;;25.30;63.00;;;;;;5047368;28;20056;-43
2022/08/16 10:59:11;;;;;;;1.45;0.80;;;25.30;63.00;;;;;;5047797;28;20052;-43
2022/08/16 11:01:37;;;;;;;0.70;0.70;;;25.30;62.90;;;;;;5048002;28;20014;-43
2022/08/16 11:04:03;;;;;;;0.80;0.80;;;25.30;62.90;;;;;;5046746;28;20032;-43
2022/08/16 11:06:28;;;;;;;0.80;0.80;;;25.40;62.70;;;;;;5047291;28;20373;-43
2022/08/16 11:08:55;;;;;;;0.90;0.90;;;25.30;62.70;;;;;;5047039;28;20013;-43
2022/08/16 11:11:21;;;;;;;0.98;0.70;;;25.40;62.80;;;;;;5046888;28;20099;-43
2022/08/16 11:13:47;;;;;;;0.75;0.75;;;25.30;62.80;;;;;;5048902;28;20059;-43
2022/08/16 11:16:12;;;;;;;0.80;0.77;;;25.40;62.60;;;;;;5046595;28;20040;-43
2022/08/16 11:18:38;;;;;;;0.90;0.90;;;25.30;62.60;;;;;;5045701;28;20033;-43
2022/08/16 11:21:04;;;;;;;0.88;0.88;;;25.40;62.60;;;;;;5047873;28;20036;-43
2022/08/16 11:23:29;;;;;;;0.93;0.80;;;25.40;62.60;;;;;;5047297;28;20025;-43
2022/08/16 11:25:55;;;;;;;0.90;0.90;;;25.40;62.60;;;;;;5045874;28;20029;-43
2022/08/16 11:28:21;;;;;;;0.80;0.80;;;25.30;62.50;;;;;;5047261;28;20052;-43
2022/08/16 11:30:47;;;;;;;0.75;0.75;;;25.40;62.60;;;;;;5046767;28;20041;-43
2022/08/16 11:33:12;;;;;;;3.03;0.90;;;25.30;62.40;;;;;;5047793;28;20032;-43
2022/08/16 11:35:38;;;;;;;1.00;0.70;;;25.40;62.30;;;;;;5046957;28;20034;-43
2022/08/16 11:38:06;;;;;;;0.80;0.70;;;25.40;62.30;;;;;;5046952;28;20037;-44
2022/08/16 11:40:45;;;;;;;1.50;0.73;;;25.40;62.20;;;;;;5046987;28;20037;-43
2022/08/16 11:43:13;;;;;;;0.90;0.90;;;25.40;62.30;;;;;;5048388;28;20032;-43
2022/08/16 11:45:38;;;;;;;0.63;0.63;;;25.40;62.20;;;;;;5046775;28;20124;-43
2022/08/16 11:48:04;;;;;;;0.80;0.80;;;25.40;62.20;;;;;;5047084;28;20120;-43
2022/08/16 11:50:32;;;;;;;1.00;1.00;;;25.40;62.10;;;;;;5044950;28;20802;-43
2022/08/16 11:52:58;;;;;;;1.35;0.93;;;25.40;62.20;;;;;;5046476;28;20430;-43
2022/08/16 11:55:24;;;;;;;0.88;0.80;;;25.40;62.20;;;;;;5045918;28;20319;-43
2022/08/16 11:57:50;;;;;;;1.73;0.80;;;25.40;62.00;;;;;;5047415;28;20021;-43
2022/08/16 12:00:16;;;;;;;0.73;0.73;;;25.40;61.90;;;;;;5047771;28;20130;-43
2022/08/16 12:02:42;;;;;;;0.70;0.70;;;25.40;61.90;;;;;;5044684;28;20036;-43
2022/08/16 12:05:10;;;;;;;0.63;0.63;;;25.40;61.90;;;;;;5045635;28;20025;-43
2022/08/16 12:07:36;;;;;;;0.80;0.80;;;25.40;61.80;;;;;;5045694;28;20032;-43
2022/08/16 12:10:03;;;;;;;0.63;0.60;;;25.40;61.70;;;;;;5046518;28;20033;-43
2022/08/16 12:12:28;;;;;;;1.05;0.82;;;25.40;61.60;;;;;;5044381;28;20021;-43
2022/08/16 12:14:54;;;;;;;0.60;0.60;;;25.40;61.60;;;;;;5045929;28;20017;-43
2022/08/16 12:17:21;;;;;;;0.70;0.70;;;25.40;61.60;;;;;;5047611;28;20029;-43
2022/08/16 12:19:47;;;;;;;0.90;0.90;;;25.40;61.60;;;;;;5046075;28;20029;-43
2022/08/16 12:22:13;;;;;;;0.80;0.80;;;25.40;61.50;;;;;;5045436;28;20845;-43
2022/08/16 12:24:39;;;;;;;0.93;0.93;;;25.40;61.40;;;;;;5044153;28;20457;-43
2022/08/16 12:27:05;;;;;;;0.60;0.60;;;25.40;61.50;;;;;;5048330;28;20515;-43
2022/08/16 12:29:30;;;;;;;0.65;0.65;;;25.40;61.50;;;;;;5045204;28;20025;-44
2022/08/16 12:31:56;;;;;;;0.70;0.70;;;25.40;61.40;;;;;;5045708;28;20105;-44
2022/08/16 12:34:22;;;;;;;0.95;0.95;;;25.40;61.50;;;;;;5044653;28;20044;-43
2022/08/16 12:36:47;;;;;;;0.70;0.70;;;25.40;61.40;;;;;;5046533;28;20028;-43
2022/08/16 12:39:13;;;;;;;1.15;0.70;;;25.40;61.30;;;;;;5042122;28;20037;-43
2022/08/16 12:41:39;;;;;;;0.65;0.65;;;25.40;61.40;;;;;;5046494;28;20041;-43